TimeCDT,TemperatureF,Dew PointF,Humidity,Sea Level PressureIn,VisibilityMPH,Wind Direction,Wind SpeedMPH,Gust SpeedMPH,PrecipitationIn,Events,Conditions,WindDirDegrees,DateUTC
12:53 AM,64.9,62.1,90,30.14,6.0,SE,5.8,-,N/A,,Clear,140,2012-10-13 05:53:00
1:53 AM,64.9,62.1,90,30.14,6.0,SE,4.6,-,N/A,,Clear,140,2012-10-13 06:53:00
2:53 AM,64.9,63.0,93,30.15,6.0,SE,3.5,-,N/A,,Clear,130,2012-10-13 07:53:00
3:30 AM,66.2,62.6,88,30.13,6.0,SE,4.6,-,N/A,,Mostly Cloudy,140,2012-10-13 08:30:00
3:41 AM,64.4,62.6,94,30.13,5.0,SE,4.6,-,N/A,,Scattered Clouds,140,2012-10-13 08:41:00
3:53 AM,64.9,63.0,93,30.14,5.0,SE,4.6,-,N/A,,Partly Cloudy,140,2012-10-13 08:53:00
4:53 AM,64.0,63.0,96,30.14,4.0,SE,4.6,-,N/A,,Clear,140,2012-10-13 09:53:00
5:53 AM,64.9,64.0,97,30.15,3.0,SE,6.9,-,N/A,,Scattered Clouds,140,2012-10-13 10:53:00
6:53 AM,68.0,66.9,96,30.16,3.0,SE,8.1,-,N/A,,Scattered Clouds,140,2012-10-13 11:53:00
7:00 AM,66.2,66.2,100,30.15,0.5,SE,8.1,-,N/A,Fog,Fog,130,2012-10-13 12:00:00
7:17 AM,66.2,66.2,100,30.15,0.2,SE,9.2,-,N/A,Fog,Fog,140,2012-10-13 12:17:00
7:53 AM,68.0,66.9,96,30.17,0.2,SE,6.9,-,N/A,Fog,Fog,130,2012-10-13 12:53:00
8:11 AM,68.0,66.2,94,30.16,0.2,SE,10.4,-,N/A,Fog,Fog,130,2012-10-13 13:11:00
8:53 AM,68.0,68.0,100,30.18,0.2,SE,9.2,-,N/A,Fog,Fog,130,2012-10-13 13:53:00
9:03 AM,69.8,68.0,94,30.17,0.5,SE,8.1,-,N/A,Fog,Fog,140,2012-10-13 14:03:00
9:46 AM,69.8,68.0,94,30.18,3.0,SE,10.4,-,N/A,,Overcast,140,2012-10-13 14:46:00
9:53 AM,70.0,68.0,93,30.19,4.0,SE,9.2,-,N/A,,Overcast,140,2012-10-13 14:53:00
10:21 AM,71.6,69.8,94,30.18,5.0,SSE,9.2,-,N/A,,Overcast,150,2012-10-13 15:21:00
10:53 AM,73.9,69.1,85,30.18,6.0,SE,9.2,-,N/A,,Haze,140,2012-10-13 15:53:00
11:18 AM,78.8,69.8,74,30.16,7.0,SE,11.5,-,N/A,,Overcast,140,2012-10-13 16:18:00
11:53 AM,79.0,69.1,72,30.16,9.0,SE,10.4,-,N/A,,Scattered Clouds,140,2012-10-13 16:53:00
12:04 PM,78.8,69.8,74,30.14,9.0,SSE,9.2,-,N/A,,Mostly Cloudy,150,2012-10-13 17:04:00
12:38 PM,80.6,69.8,70,30.13,10.0,SSE,9.2,-,N/A,,Mostly Cloudy,160,2012-10-13 17:38:00
12:53 PM,82.0,69.1,65,30.13,10.0,South,6.9,-,N/A,,Mostly Cloudy,170,2012-10-13 17:53:00
1:53 PM,84.9,66.9,55,30.09,10.0,South,11.5,-,N/A,,Mostly Cloudy,180,2012-10-13 18:53:00
3:53 PM,84.0,64.9,53,30.04,10.0,South,12.7,-,N/A,,Clear,180,2012-10-13 20:53:00
4:53 PM,84.9,64.9,51,30.03,10.0,South,11.5,-,N/A,,Clear,170,2012-10-13 21:53:00
5:53 PM,82.9,66.0,56,30.02,10.0,South,8.1,-,N/A,,Clear,170,2012-10-13 22:53:00
7:53 PM,75.9,66.9,74,30.03,10.0,SSE,6.9,-,N/A,,Clear,160,2012-10-14 00:53:00
9:53 PM,73.9,66.9,79,30.06,10.0,SSE,6.9,-,N/A,,Clear,160,2012-10-14 02:53:00
10:53 PM,73.0,68.0,84,30.05,10.0,SSE,8.1,-,N/A,,Clear,160,2012-10-14 03:53:00